createdAt,value
2019-01-25T00:00:32.456Z,-7.17
2019-01-25T00:03:02.288Z,-7.23
2019-01-25T00:05:30.604Z,-7.27
2019-01-25T00:07:59.709Z,-7.32
2019-01-25T00:10:28.816Z,-7.38
2019-01-25T00:12:57.854Z,-7.44
2019-01-25T00:15:26.980Z,-7.50
2019-01-25T00:17:56.337Z,-7.53
2019-01-25T00:20:25.360Z,-7.56
2019-01-25T00:22:54.469Z,-7.58
2019-01-25T00:25:23.548Z,-7.63
2019-01-25T00:27:52.615Z,-7.69
2019-01-25T00:30:21.709Z,-7.72
2019-01-25T00:32:50.775Z,-7.74
2019-01-25T00:35:19.838Z,-7.80
2019-01-25T00:37:48.944Z,-7.87
2019-01-25T00:40:18.371Z,-7.92
2019-01-25T00:42:47.388Z,-7.96
2019-01-25T00:45:19.099Z,-7.97
2019-01-25T00:47:48.164Z,-7.99
2019-01-25T00:50:18.048Z,-7.97
2019-01-25T00:52:47.127Z,-7.96
2019-01-25T00:55:16.185Z,-7.95
2019-01-25T00:57:46.284Z,-7.98
2019-01-25T01:00:16.062Z,-8.02
2019-01-25T01:02:45.121Z,-8.06
2019-01-25T01:05:14.213Z,-8.11
2019-01-25T01:07:43.601Z,-8.16
2019-01-25T01:10:14.238Z,-8.21
2019-01-25T01:12:41.750Z,-8.26
2019-01-25T01:15:22.468Z,-8.32
2019-01-25T01:17:51.574Z,-8.37
2019-01-25T01:20:20.675Z,-8.42
2019-01-25T01:22:49.798Z,-8.45
2019-01-25T01:25:18.984Z,-8.48
2019-01-25T01:27:48.062Z,-8.48
2019-01-25T01:30:18.852Z,-8.48
2019-01-25T01:32:47.943Z,-8.49
2019-01-25T01:35:29.691Z,-8.52
2019-01-25T01:37:58.805Z,-8.55
2019-01-25T01:40:27.876Z,-8.59
2019-01-25T01:42:56.937Z,-8.58
2019-01-25T01:45:26.035Z,-8.59
2019-01-25T01:47:55.098Z,-8.60
2019-01-25T01:50:24.160Z,-8.60
2019-01-25T01:52:53.261Z,-8.56
2019-01-25T01:55:23.291Z,-8.46
2019-01-25T01:57:53.358Z,-8.37
2019-01-25T02:00:22.579Z,-8.34
2019-01-25T02:02:51.642Z,-8.35
2019-01-25T02:05:35.052Z,-8.38
2019-01-25T02:08:04.129Z,-8.42
2019-01-25T02:10:33.194Z,-8.42
2019-01-25T02:13:02.290Z,-8.45
2019-01-25T02:15:31.355Z,-8.47
2019-01-25T02:18:00.427Z,-8.44
2019-01-25T02:20:29.537Z,-8.38
2019-01-25T02:22:58.595Z,-8.29
2019-01-25T02:25:32.340Z,-8.24
2019-01-25T02:28:01.405Z,-8.17
2019-01-25T02:30:30.475Z,-8.14
2019-01-25T02:32:59.573Z,-8.11
2019-01-25T02:38:22.987Z,-8.08
2019-01-25T02:40:52.066Z,-8.07
2019-01-25T02:43:21.129Z,-8.09
2019-01-25T02:45:50.594Z,-8.08
2019-01-25T02:48:19.681Z,-8.08
2019-01-25T02:50:48.748Z,-8.09
2019-01-25T02:53:17.849Z,-8.12
2019-01-25T02:55:50.435Z,-8.15
2019-01-25T02:58:19.669Z,-8.15
2019-01-25T03:00:48.737Z,-8.19
2019-01-25T03:03:17.803Z,-8.28
2019-01-25T03:05:46.901Z,-8.32
2019-01-25T03:08:15.952Z,-8.36
2019-01-25T03:10:47.223Z,-8.40
2019-01-25T03:13:14.106Z,-8.46
2019-01-25T03:15:43.170Z,-8.52
2019-01-25T03:18:12.240Z,-8.57
2019-01-25T03:20:41.364Z,-8.63
2019-01-25T03:23:10.431Z,-8.67
2019-01-25T03:25:40.518Z,-8.74
2019-01-25T03:28:09.613Z,-8.80
2019-01-25T03:30:38.692Z,-8.85
2019-01-25T03:33:07.767Z,-8.89
2019-01-25T03:35:36.859Z,-8.94
2019-01-25T03:38:05.930Z,-8.99
2019-01-25T03:40:35.009Z,-9.01
2019-01-25T03:43:04.121Z,-9.03
2019-01-25T03:45:33.221Z,-9.06
2019-01-25T03:48:02.288Z,-9.08
2019-01-25T03:50:31.364Z,-9.11
2019-01-25T03:53:00.448Z,-9.12
2019-01-25T03:55:29.495Z,-9.15
2019-01-25T03:57:58.592Z,-9.15
2019-01-25T04:00:28.535Z,-9.13
2019-01-25T04:02:57.594Z,-9.11
2019-01-25T04:05:26.713Z,-9.11
2019-01-25T04:07:55.793Z,-9.09
2019-01-25T04:10:24.855Z,-9.06
2019-01-25T04:12:53.968Z,-9.04
2019-01-25T04:15:23.938Z,-9.00
2019-01-25T04:17:53.009Z,-8.95
2019-01-25T04:20:22.131Z,-8.91
2019-01-25T04:22:51.196Z,-8.87
2019-01-25T04:25:21.244Z,-8.82
2019-01-25T04:27:50.356Z,-8.77
2019-01-25T04:30:20.410Z,-8.71
2019-01-25T04:32:49.490Z,-8.67
2019-01-25T04:35:18.616Z,-8.60
2019-01-25T04:37:47.663Z,-8.56
2019-01-25T04:40:16.719Z,-8.49
2019-01-25T04:42:45.814Z,-8.44
2019-01-25T04:45:16.819Z,-8.41
2019-01-25T04:47:45.893Z,-8.38
2019-01-25T04:50:15.974Z,-8.35
2019-01-25T04:52:45.104Z,-8.31
2019-01-25T04:55:15.142Z,-8.29
2019-01-25T04:57:44.247Z,-8.26
2019-01-25T05:00:13.333Z,-8.25
2019-01-25T05:02:43.525Z,-8.23
2019-01-25T05:05:12.636Z,-8.21
2019-01-25T05:07:41.715Z,-8.19
2019-01-25T05:10:11.275Z,-8.17
2019-01-25T05:12:40.303Z,-8.17
2019-01-25T05:15:09.376Z,-8.16
2019-01-25T05:17:38.434Z,-8.14
2019-01-25T05:20:07.558Z,-8.13
2019-01-25T05:22:36.638Z,-8.12
2019-01-25T05:25:05.715Z,-8.12
2019-01-25T05:27:34.837Z,-8.10
2019-01-25T05:30:03.918Z,-8.10
2019-01-25T05:32:33.006Z,-8.10
2019-01-25T05:35:06.179Z,-8.11
2019-01-25T05:37:35.254Z,-8.11
2019-01-25T05:40:04.347Z,-8.11
2019-01-25T05:42:33.439Z,-8.11
2019-01-25T05:45:02.599Z,-8.12
2019-01-25T05:47:31.695Z,-8.10
2019-01-25T05:50:00.805Z,-8.10
2019-01-25T05:52:29.888Z,-8.08
2019-01-25T05:55:23.137Z,-8.06
2019-01-25T05:57:52.202Z,-8.04
2019-01-25T06:00:24.074Z,-8.04
2019-01-25T06:02:53.173Z,-8.00
2019-01-25T06:05:22.248Z,-7.98
2019-01-25T06:07:51.357Z,-7.95
2019-01-25T06:10:20.447Z,-7.93
2019-01-25T06:12:50.378Z,-7.91
2019-01-25T06:15:18.897Z,-7.88
2019-01-25T06:17:47.971Z,-7.86
2019-01-25T06:20:17.055Z,-7.83
2019-01-25T06:22:46.167Z,-7.79
2019-01-25T06:25:15.252Z,-7.76
2019-01-25T06:27:44.328Z,-7.72
2019-01-25T06:30:14.314Z,-7.68
2019-01-25T06:32:43.386Z,-7.65
2019-01-25T06:35:25.980Z,-7.62
2019-01-25T06:37:54.231Z,-7.57
2019-01-25T06:40:23.324Z,-7.55
2019-01-25T06:42:52.415Z,-7.52
2019-01-25T06:45:21.493Z,-7.49
2019-01-25T06:47:50.559Z,-7.45
2019-01-25T06:50:19.660Z,-7.41
2019-01-25T06:52:48.732Z,-7.38
2019-01-25T06:55:17.810Z,-7.34
2019-01-25T06:57:50.020Z,-7.29
2019-01-25T07:00:20.012Z,-7.26
2019-01-25T07:02:49.090Z,-7.21
2019-01-25T07:05:18.193Z,-7.16
2019-01-25T07:07:47.260Z,-7.13
2019-01-25T07:10:16.353Z,-7.06
2019-01-25T07:12:45.456Z,-7.03
2019-01-25T07:15:27.984Z,-6.98
2019-01-25T07:17:57.633Z,-6.94
2019-01-25T07:20:26.951Z,-6.90
2019-01-25T07:22:56.410Z,-6.83
2019-01-25T07:25:25.919Z,-6.79
2019-01-25T07:27:55.332Z,-6.75
2019-01-25T07:30:24.809Z,-6.71
2019-01-25T07:32:54.309Z,-6.66
2019-01-25T07:35:35.848Z,-6.61
2019-01-25T07:38:05.363Z,-6.56
2019-01-25T07:40:34.828Z,-6.51
2019-01-25T07:43:04.238Z,-6.45
2019-01-25T07:45:33.248Z,-6.38
2019-01-25T07:48:02.321Z,-6.30
2019-01-25T07:50:31.411Z,-6.23
2019-01-25T07:53:00.490Z,-6.13
2019-01-25T07:55:30.571Z,-6.04
2019-01-25T07:57:59.622Z,-5.96
2019-01-25T08:00:28.769Z,-5.85
2019-01-25T08:02:57.857Z,-5.75
2019-01-25T08:05:27.828Z,-5.65
2019-01-25T08:07:56.979Z,-5.53
2019-01-25T08:10:26.096Z,-5.42
2019-01-25T08:12:55.153Z,-5.28
2019-01-25T08:15:25.500Z,-5.11
2019-01-25T08:17:54.477Z,-4.96
2019-01-25T08:20:23.543Z,-4.83
2019-01-25T08:22:52.657Z,-4.74
2019-01-25T08:25:22.003Z,-4.66
2019-01-25T08:27:50.830Z,-4.56
2019-01-25T08:30:20.855Z,-4.54
2019-01-25T08:32:49.957Z,-4.47
2019-01-25T08:35:18.982Z,-4.43
2019-01-25T08:37:48.086Z,-4.40
2019-01-25T08:40:17.172Z,-4.32
2019-01-25T08:42:46.225Z,-4.28
2019-01-25T08:45:40.725Z,-4.22
2019-01-25T08:48:09.793Z,-4.18
2019-01-25T08:50:38.934Z,-4.13
2019-01-25T08:53:07.925Z,-4.06
2019-01-25T08:55:37.049Z,-4.02
2019-01-25T08:58:06.092Z,-3.98
2019-01-25T09:00:35.139Z,-3.97
2019-01-25T09:03:04.200Z,-3.93
2019-01-25T09:05:33.474Z,-3.85
2019-01-25T09:08:02.543Z,-3.78
2019-01-25T09:10:31.619Z,-3.66
2019-01-25T09:13:00.719Z,-3.54
2019-01-25T09:15:29.780Z,-3.48
2019-01-25T09:17:58.847Z,-3.49
2019-01-25T09:20:28.457Z,-3.39
2019-01-25T09:22:57.445Z,-3.29
2019-01-25T09:25:26.506Z,-3.15
2019-01-25T09:27:55.897Z,-2.99
2019-01-25T09:30:26.579Z,-2.84
2019-01-25T09:32:55.604Z,-2.77
2019-01-25T09:35:24.698Z,-2.66
2019-01-25T09:37:53.777Z,-2.63
2019-01-25T09:40:23.718Z,-2.58
2019-01-25T09:42:52.805Z,-2.50
2019-01-25T09:45:21.892Z,-2.45
2019-01-25T09:47:51.010Z,-2.44
2019-01-25T09:50:20.141Z,-2.58
2019-01-25T09:52:49.215Z,-2.54
2019-01-25T09:55:20.111Z,-2.47
2019-01-25T09:57:49.211Z,-2.36
2019-01-25T10:00:19.128Z,-2.39
2019-01-25T10:02:48.207Z,-2.33
2019-01-25T10:05:17.282Z,-2.24
2019-01-25T10:07:46.344Z,-2.14
2019-01-25T10:10:15.418Z,-2.04
2019-01-25T10:12:44.591Z,-1.95
2019-01-25T10:15:13.661Z,-1.92
2019-01-25T10:17:43.022Z,-1.85
2019-01-25T10:20:12.119Z,-1.90
2019-01-25T10:22:41.198Z,-2.01
2019-01-25T10:25:10.283Z,-2.00
2019-01-25T10:27:39.385Z,-2.03
2019-01-25T10:30:10.029Z,-2.11
2019-01-25T10:32:39.091Z,-2.07
2019-01-25T10:35:11.495Z,-2.06
2019-01-25T10:37:40.561Z,-2.05
2019-01-25T10:40:09.627Z,-2.04
2019-01-25T10:42:44.240Z,-2.07
2019-01-25T10:45:10.354Z,-2.06
2019-01-25T10:47:39.425Z,-2.04
2019-01-25T10:50:08.618Z,-2.03
2019-01-25T10:52:37.686Z,-2.03
2019-01-25T10:55:06.751Z,-2.02
2019-01-25T10:57:35.863Z,-2.02
2019-01-25T11:00:04.928Z,-2.04
2019-01-25T11:02:34.003Z,-2.07
2019-01-25T11:05:03.100Z,-2.10
2019-01-25T11:07:32.172Z,-2.15
2019-01-25T11:10:01.237Z,-2.19
2019-01-25T11:12:30.329Z,-2.22
2019-01-25T11:14:59.403Z,-2.18
2019-01-25T11:17:28.483Z,-2.12
2019-01-25T11:19:57.615Z,-2.09
2019-01-25T11:22:26.689Z,-2.02
2019-01-25T11:24:55.767Z,-1.96
2019-01-25T11:27:24.866Z,-1.94
2019-01-25T11:29:53.938Z,-1.92
2019-01-25T11:32:23.015Z,-1.96
2019-01-25T11:34:52.107Z,-1.96
2019-01-25T11:37:21.178Z,-1.92
2019-01-25T11:39:50.247Z,-1.87
2019-01-25T11:42:19.384Z,-1.85
2019-01-25T11:44:48.452Z,-1.79
2019-01-25T11:47:17.521Z,-1.72
2019-01-25T11:49:46.625Z,-1.64
2019-01-25T11:52:15.695Z,-1.55
2019-01-25T11:54:44.758Z,-1.48
2019-01-25T11:57:13.873Z,-1.35
2019-01-25T11:59:42.916Z,-1.30
2019-01-25T12:02:11.974Z,-1.20
2019-01-25T12:04:41.092Z,-1.15
2019-01-25T12:07:10.161Z,-1.11
2019-01-25T12:09:39.226Z,-1.14
2019-01-25T12:12:08.323Z,-1.17
2019-01-25T12:14:37.386Z,-1.17
2019-01-25T12:17:06.461Z,-1.14
2019-01-25T12:19:35.553Z,-1.13
2019-01-25T12:22:04.617Z,-1.12
2019-01-25T12:24:33.685Z,-1.10
2019-01-25T12:27:02.823Z,-1.07
2019-01-25T12:29:31.963Z,-1.03
2019-01-25T12:32:01.297Z,-1.17
2019-01-25T12:34:30.067Z,-1.16
2019-01-25T12:36:59.138Z,-1.15
2019-01-25T12:39:28.202Z,-1.10
2019-01-25T12:41:57.295Z,-1.05
2019-01-25T12:44:26.360Z,-1.01
2019-01-25T12:46:55.436Z,-1.01
2019-01-25T12:49:24.619Z,-1.00
2019-01-25T12:51:53.704Z,-1.01
2019-01-25T12:54:22.771Z,-1.03
2019-01-25T12:56:51.869Z,-1.02
2019-01-25T12:59:20.935Z,-1.02
2019-01-25T13:01:50.005Z,-1.02
2019-01-25T13:04:19.096Z,-1.02
2019-01-25T13:06:48.192Z,-1.03
2019-01-25T13:09:17.254Z,-1.05
2019-01-25T13:11:47.394Z,-1.07
2019-01-25T13:14:15.448Z,-1.09
2019-01-25T13:16:44.556Z,-1.13
2019-01-25T13:19:13.647Z,-1.16
2019-01-25T13:21:42.727Z,-1.17
2019-01-25T13:24:11.793Z,-1.20
2019-01-25T13:26:40.952Z,-1.21
2019-01-25T13:29:09.995Z,-1.22
2019-01-25T13:31:39.086Z,-1.23
2019-01-25T13:34:08.220Z,-1.24
2019-01-25T13:36:37.296Z,-1.25
2019-01-25T13:39:06.378Z,-1.27
2019-01-25T13:41:35.514Z,-1.34
2019-01-25T13:44:04.591Z,-1.35
2019-01-25T13:46:33.653Z,-1.37
2019-01-25T13:49:02.741Z,-1.42
2019-01-25T13:51:32.238Z,-1.46
2019-01-25T13:54:01.227Z,-1.49
2019-01-25T13:56:30.352Z,-1.51
2019-01-25T13:58:59.424Z,-1.54
2019-01-25T14:01:34.564Z,-1.60
2019-01-25T14:03:57.603Z,-1.64
2019-01-25T14:06:26.667Z,-1.66
2019-01-25T14:08:55.736Z,-1.70
2019-01-25T14:11:24.836Z,-1.73
2019-01-25T14:13:53.917Z,-1.78
2019-01-25T14:16:22.987Z,-1.82
2019-01-25T14:18:52.197Z,-1.86
2019-01-25T14:21:21.158Z,-1.90
2019-01-25T14:23:50.453Z,-1.95
2019-01-25T14:26:35.752Z,-1.98
2019-01-25T14:29:04.827Z,-2.03
2019-01-25T14:31:33.910Z,-2.06
2019-01-25T14:34:03.038Z,-2.09
2019-01-25T14:36:32.115Z,-2.11
2019-01-25T14:39:01.196Z,-2.14
2019-01-25T14:41:30.301Z,-2.17
2019-01-25T14:43:59.363Z,-2.20
2019-01-25T14:46:28.429Z,-2.25
2019-01-25T14:48:57.520Z,-2.29
2019-01-25T14:51:26.576Z,-2.33
2019-01-25T14:53:55.643Z,-2.37
2019-01-25T14:56:24.755Z,-2.41
2019-01-25T14:58:53.820Z,-2.42
2019-01-25T15:01:22.904Z,-2.47
2019-01-25T15:03:52.012Z,-2.48
2019-01-25T15:06:21.087Z,-2.51
2019-01-25T15:08:50.159Z,-2.52
2019-01-25T15:11:19.598Z,-2.53
2019-01-25T15:13:49.775Z,-2.54
2019-01-25T15:16:17.448Z,-2.57
2019-01-25T15:18:46.651Z,-2.60
2019-01-25T15:21:15.726Z,-2.63
2019-01-25T15:23:44.794Z,-2.65
2019-01-25T15:26:13.889Z,-2.67
2019-01-25T15:28:42.960Z,-2.68
2019-01-25T15:31:12.041Z,-2.70
2019-01-25T15:33:41.150Z,-2.70
2019-01-25T15:36:10.243Z,-2.70
2019-01-25T15:38:39.324Z,-2.71
2019-01-25T15:41:08.425Z,-2.70
2019-01-25T15:43:37.503Z,-2.70
2019-01-25T15:46:06.582Z,-2.69
2019-01-25T15:48:35.682Z,-2.71
2019-01-25T15:51:04.761Z,-2.71
2019-01-25T15:53:33.823Z,-2.71
2019-01-25T15:56:02.942Z,-2.71
2019-01-25T15:58:32.022Z,-2.71
2019-01-25T16:01:01.107Z,-2.72
2019-01-25T16:03:30.249Z,-2.75
2019-01-25T16:05:59.327Z,-2.79
2019-01-25T16:08:28.441Z,-2.80
2019-01-25T16:10:57.521Z,-2.79
2019-01-25T16:13:26.595Z,-2.78
2019-01-25T16:16:05.995Z,-2.76
2019-01-25T16:18:35.050Z,-2.77
2019-01-25T16:21:04.462Z,-2.77
2019-01-25T16:23:33.548Z,-2.77
2019-01-25T16:26:02.606Z,-2.77
2019-01-25T16:28:32.191Z,-2.76
2019-01-25T16:31:02.067Z,-2.77
2019-01-25T16:33:30.251Z,-2.78
2019-01-25T16:36:03.070Z,-2.79
2019-01-25T16:38:32.132Z,-2.79
2019-01-25T16:41:01.731Z,-2.80
2019-01-25T16:43:30.725Z,-2.81
2019-01-25T16:45:59.793Z,-2.79
2019-01-25T16:48:28.864Z,-2.77
2019-01-25T16:50:57.955Z,-2.77
2019-01-25T16:53:27.035Z,-2.75
2019-01-25T16:55:56.124Z,-2.77
2019-01-25T16:58:25.681Z,-2.76
2019-01-25T17:00:54.684Z,-2.75
2019-01-25T17:03:23.764Z,-2.75
2019-01-25T17:05:52.865Z,-2.75
2019-01-25T17:08:21.948Z,-2.77
2019-01-25T17:10:51.034Z,-2.76
2019-01-25T17:13:20.148Z,-2.75
2019-01-25T17:15:49.247Z,-2.74
2019-01-25T17:18:18.303Z,-2.73
2019-01-25T17:20:47.437Z,-2.73
2019-01-25T17:23:16.515Z,-2.73
2019-01-25T17:25:45.598Z,-2.73
2019-01-25T17:28:14.703Z,-2.72
2019-01-25T17:30:43.779Z,-2.74
2019-01-25T17:33:12.858Z,-2.74
2019-01-25T17:35:41.970Z,-2.74
2019-01-25T17:38:11.047Z,-2.75
2019-01-25T17:40:46.511Z,-2.77
2019-01-25T17:43:09.405Z,-2.77
2019-01-25T17:45:38.477Z,-2.79
2019-01-25T17:48:07.555Z,-2.80
2019-01-25T17:50:36.664Z,-2.84
2019-01-25T17:53:05.739Z,-2.86
2019-01-25T17:55:34.812Z,-2.89
2019-01-25T17:58:08.070Z,-2.91
2019-01-25T18:00:33.032Z,-2.93
2019-01-25T18:03:02.104Z,-2.95
2019-01-25T18:05:31.260Z,-2.95
2019-01-25T18:08:00.336Z,-2.96
2019-01-25T18:10:29.403Z,-2.99
2019-01-25T18:12:58.506Z,-3.01
2019-01-25T18:15:27.579Z,-3.04
2019-01-25T18:17:56.651Z,-3.06
2019-01-25T18:20:25.742Z,-3.07
2019-01-25T18:22:55.692Z,-3.07
2019-01-25T18:25:35.328Z,-3.10
2019-01-25T18:28:05.193Z,-3.08
2019-01-25T18:30:35.882Z,-3.07
2019-01-25T18:33:04.952Z,-3.08
2019-01-25T18:35:34.016Z,-3.06
2019-01-25T18:38:03.108Z,-3.04
2019-01-25T18:40:32.182Z,-3.01
2019-01-25T18:43:01.252Z,-3.00
2019-01-25T18:45:30.447Z,-3.01
2019-01-25T18:47:59.526Z,-3.00
2019-01-25T18:50:28.615Z,-2.99
2019-01-25T18:52:57.730Z,-2.96
2019-01-25T18:55:26.832Z,-2.94
2019-01-25T18:57:55.909Z,-2.91
2019-01-25T19:00:25.964Z,-2.87
2019-01-25T19:02:54.090Z,-2.87
2019-01-25T19:05:29.587Z,-2.84
2019-01-25T19:07:58.653Z,-2.85
2019-01-25T19:10:27.718Z,-2.84
2019-01-25T19:12:56.812Z,-2.84
2019-01-25T19:15:27.720Z,-2.84
2019-01-25T19:17:56.792Z,-2.83
2019-01-25T19:20:25.880Z,-2.83
2019-01-25T19:22:54.955Z,-2.81
2019-01-25T19:25:24.023Z,-2.79
2019-01-25T19:27:53.154Z,-2.77
2019-01-25T19:30:24.030Z,-2.76
2019-01-25T19:32:53.125Z,-2.74
2019-01-25T19:35:22.241Z,-2.74
2019-01-25T19:37:51.327Z,-2.72
2019-01-25T19:40:21.214Z,-2.71
2019-01-25T19:42:50.319Z,-2.72
2019-01-25T19:45:19.399Z,-2.70
2019-01-25T19:47:48.463Z,-2.69
2019-01-25T19:50:17.595Z,-2.68
2019-01-25T19:52:46.646Z,-2.69
2019-01-25T19:55:17.662Z,-2.69
2019-01-25T19:57:46.774Z,-2.70
2019-01-25T20:00:16.583Z,-2.71
2019-01-25T20:02:45.657Z,-2.71
2019-01-25T20:05:14.776Z,-2.71
2019-01-25T20:07:43.871Z,-2.71
2019-01-25T20:10:12.933Z,-2.71
2019-01-25T20:12:42.068Z,-2.71
2019-01-25T20:15:19.238Z,-2.70
2019-01-25T20:17:41.175Z,-2.69
2019-01-25T20:20:10.304Z,-2.69
2019-01-25T20:22:39.359Z,-2.68
2019-01-25T20:25:18.147Z,-2.66
2019-01-25T20:27:47.208Z,-2.67
2019-01-25T20:30:17.091Z,-2.67
2019-01-25T20:32:46.562Z,-2.67
2019-01-25T20:35:15.644Z,-2.65
2019-01-25T20:37:44.719Z,-2.64
2019-01-25T20:40:13.827Z,-2.64
2019-01-25T20:42:42.907Z,-2.62
2019-01-25T20:45:11.992Z,-2.62
2019-01-25T20:47:41.091Z,-2.59
2019-01-25T20:50:24.470Z,-2.58
2019-01-25T20:52:53.634Z,-2.56
2019-01-25T20:58:33.157Z,-2.56
2019-01-25T21:01:20.463Z,-2.56
2019-01-25T21:03:52.419Z,-2.54
2019-01-25T21:06:21.495Z,-2.55
2019-01-25T21:08:50.572Z,-2.54
2019-01-25T21:11:19.727Z,-2.52
2019-01-25T21:13:48.821Z,-2.52
2019-01-25T21:16:17.903Z,-2.50
2019-01-25T21:18:47.047Z,-2.50
2019-01-25T21:21:16.125Z,-2.49
2019-01-25T21:23:45.198Z,-2.49
2019-01-25T21:26:15.120Z,-2.48
2019-01-25T21:28:44.228Z,-2.48
2019-01-25T21:31:13.272Z,-2.52
2019-01-25T21:33:42.769Z,-2.51
2019-01-25T21:36:12.709Z,-2.52
2019-01-25T21:38:41.780Z,-2.54
2019-01-25T21:41:10.881Z,-2.55
2019-01-25T21:43:39.951Z,-2.55
2019-01-25T21:46:09.013Z,-2.56
2019-01-25T21:48:38.113Z,-2.53
2019-01-25T21:51:07.164Z,-2.52
2019-01-25T21:53:36.238Z,-2.50
2019-01-25T21:56:05.361Z,-2.48
2019-01-25T21:58:34.432Z,-2.48
2019-01-25T22:01:03.496Z,-2.44
2019-01-25T22:03:32.601Z,-2.42
2019-01-25T22:06:01.663Z,-2.38
2019-01-25T22:08:30.724Z,-2.36
2019-01-25T22:10:59.902Z,-2.35
2019-01-25T22:13:28.974Z,-2.34
2019-01-25T22:15:58.023Z,-2.34
2019-01-25T22:18:27.162Z,-2.33
2019-01-25T22:20:56.255Z,-2.32
2019-01-25T22:23:25.331Z,-2.30
2019-01-25T22:25:54.415Z,-2.30
2019-01-25T22:28:23.496Z,-2.29
2019-01-25T22:30:52.559Z,-2.30
2019-01-25T22:33:21.657Z,-2.30
2019-01-25T22:35:51.732Z,-2.26
2019-01-25T22:38:20.803Z,-2.24
2019-01-25T22:40:49.905Z,-2.22
2019-01-25T22:43:19.000Z,-2.20
2019-01-25T22:45:48.070Z,-2.20
2019-01-25T22:48:17.160Z,-2.20
2019-01-25T22:50:46.229Z,-2.19
2019-01-25T22:53:15.291Z,-2.19
2019-01-25T22:55:44.390Z,-2.17
2019-01-25T22:58:13.458Z,-2.14
2019-01-25T23:00:45.419Z,-2.13
2019-01-25T23:03:14.475Z,-2.12
2019-01-25T23:05:43.556Z,-2.14
2019-01-25T23:08:12.652Z,-2.12
2019-01-25T23:10:41.732Z,-2.12
2019-01-25T23:13:10.803Z,-2.13
2019-01-25T23:15:39.893Z,-2.13
2019-01-25T23:18:08.953Z,-2.11
2019-01-25T23:20:38.018Z,-2.10
2019-01-25T23:23:07.134Z,-2.12
2019-01-25T23:25:54.359Z,-2.11
2019-01-25T23:28:23.361Z,-2.11
2019-01-25T23:30:52.450Z,-2.09
2019-01-25T23:33:21.531Z,-2.10
2019-01-25T23:35:50.691Z,-2.11
2019-01-25T23:38:19.693Z,-2.08
2019-01-25T23:40:48.759Z,-2.06
2019-01-25T23:43:17.928Z,-2.05
2019-01-25T23:45:50.875Z,-2.04
2019-01-25T23:48:19.959Z,-2.04
2019-01-25T23:50:49.023Z,-2.03
2019-01-25T23:53:18.091Z,-2.02
2019-01-25T23:55:47.191Z,-2.00
2019-01-25T23:58:16.254Z,-1.99
